Time;durP1;ratioP1;P1;durP2;ratioP2;P2;SDS_P1;SDS_P2;PMS_P1;PMS_P2;Temp;Humidity;BMP_temperature;BMP_pressure;BME280_temperature;BME280_humidity;BME280_pressure;Samples;Min_cycle;Max_cycle;Signal;HPM_P1;HPM_P2
2022/10/08 00:00:45;;;;;;;13.75;3.35;;;13.30;99.90;;;;;;5110462;28;20122;-71
2022/10/08 00:03:11;;;;;;;11.75;3.40;;;13.30;99.90;;;;;;5111483;28;20539;-71
2022/10/08 00:05:37;;;;;;;6.15;3.10;;;13.30;99.90;;;;;;5111499;28;20062;-71
2022/10/08 00:08:03;;;;;;;8.25;2.90;;;13.50;99.90;;;;;;5111514;28;20040;-71
2022/10/08 00:10:28;;;;;;;11.80;3.75;;;13.40;99.90;;;;;;5111808;28;20517;-71
2022/10/08 00:12:54;;;;;;;10.02;3.13;;;13.40;99.90;;;;;;5109894;28;20047;-71
2022/10/08 00:15:19;;;;;;;10.07;3.50;;;13.40;99.90;;;;;;5111481;28;20156;-71
2022/10/08 00:17:45;;;;;;;9.52;3.10;;;13.20;99.90;;;;;;5110263;28;20040;-71
2022/10/08 00:20:10;;;;;;;7.20;2.60;;;13.20;99.90;;;;;;5114898;28;20064;-71
2022/10/08 00:22:36;;;;;;;5.07;2.63;;;13.20;99.90;;;;;;5113475;28;20089;-71
2022/10/08 00:25:02;;;;;;;8.65;2.50;;;13.20;99.90;;;;;;5114923;28;20032;-71
2022/10/08 00:27:28;;;;;;;8.40;2.63;;;13.30;99.90;;;;;;5113852;28;20151;-71
2022/10/08 00:29:54;;;;;;;7.47;2.35;;;13.10;99.90;;;;;;5114974;28;20122;-71
2022/10/08 00:32:19;;;;;;;8.93;2.90;;;13.40;99.90;;;;;;5114703;28;20032;-71
2022/10/08 00:34:46;;;;;;;8.95;2.67;;;13.30;99.90;;;;;;5114655;28;20446;-71
2022/10/08 00:37:13;;;;;;;11.18;2.97;;;13.10;99.90;;;;;;5114838;28;20485;-71
2022/10/08 00:39:38;;;;;;;8.73;2.90;;;13.10;99.90;;;;;;5114972;28;20047;-71
2022/10/08 00:42:04;;;;;;;11.32;2.85;;;13.30;99.90;;;;;;5114880;28;20035;-71
2022/10/08 00:44:54;;;;;;;8.68;2.95;;;13.10;99.90;;;;;;5114549;28;20044;-71
2022/10/08 00:47:25;;;;;;;8.55;2.83;;;13.30;99.90;;;;;;5114603;28;20135;-71
2022/10/08 00:49:54;;;;;;;7.15;2.92;;;13.40;99.90;;;;;;5114532;28;20550;-71
2022/10/08 00:52:21;;;;;;;9.32;2.55;;;13.30;99.90;;;;;;5113298;28;20047;-71
2022/10/08 00:54:49;;;;;;;10.68;3.00;;;13.40;99.90;;;;;;5113148;28;20036;-71
2022/10/08 00:57:15;;;;;;;8.02;2.80;;;13.10;99.90;;;;;;5113139;28;20040;-71
2022/10/08 00:59:40;;;;;;;6.53;2.60;;;13.30;99.90;;;;;;5114417;28;20080;-71
2022/10/08 01:02:07;;;;;;;8.85;2.53;;;13.10;99.90;;;;;;5114270;28;20043;-71
2022/10/08 01:04:34;;;;;;;8.93;2.20;;;13.30;99.90;;;;;;5114220;28;20082;-71
2022/10/08 01:07:21;;;;;;;6.00;2.33;;;13.20;99.90;;;;;;5114250;28;20051;-71
2022/10/08 01:10:33;;;;;;;5.25;2.53;;;13.30;99.90;;;;;;5113271;28;20163;-71
2022/10/08 01:13:30;;;;;;;8.80;2.70;;;13.20;99.90;;;;;;5030896;28;20455;-71
2022/10/08 01:16:06;;;;;;;5.03;1.77;;;13.30;99.90;;;;;;5028051;28;20041;-71
2022/10/08 01:19:05;;;;;;;8.10;3.30;;;13.10;99.90;;;;;;5092963;28;20043;-71
2022/10/08 01:21:46;;;;;;;8.68;1.88;;;13.00;99.90;;;;;;5114125;28;20401;-71
2022/10/08 01:24:17;;;;;;;8.55;2.40;;;13.00;99.90;;;;;;5113605;28;20512;-71
2022/10/08 01:26:51;;;;;;;8.43;2.03;;;13.20;99.90;;;;;;5113747;28;20520;-71
2022/10/08 01:29:35;;;;;;;11.13;2.85;;;13.00;99.90;;;;;;5113785;28;20035;-71
2022/10/08 01:32:16;;;;;;;4.93;2.03;;;12.90;99.90;;;;;;5113962;28;20043;-71
2022/10/08 01:35:01;;;;;;;7.15;2.53;;;13.20;99.90;;;;;;5113626;28;20035;-72
2022/10/08 01:37:35;;;;;;;9.07;2.17;;;12.90;99.90;;;;;;5113646;28;20063;-71
2022/10/08 01:40:03;;;;;;;9.30;2.22;;;13.20;99.90;;;;;;5113900;28;20070;-71
2022/10/08 01:42:32;;;;;;;7.28;2.08;;;13.20;99.90;;;;;;5113373;28;20032;-72
2022/10/08 01:45:01;;;;;;;10.27;1.85;;;13.00;99.90;;;;;;5113546;28;20035;-71
2022/10/08 01:47:29;;;;;;;6.28;1.85;;;13.10;99.90;;;;;;5113481;28;20135;-72
2022/10/08 01:50:20;;;;;;;7.35;1.80;;;13.10;99.90;;;;;;5113321;28;20110;-72
2022/10/08 01:52:51;;;;;;;5.10;1.50;;;12.90;99.90;;;;;;5112398;28;20054;-72
2022/10/08 01:55:27;;;;;;;4.70;1.58;;;12.80;99.90;;;;;;5113441;28;20366;-72
2022/10/08 01:57:58;;;;;;;6.10;1.70;;;13.00;99.90;;;;;;5112023;28;20075;-71
2022/10/08 02:00:24;;;;;;;3.40;1.40;;;13.00;99.90;;;;;;5113143;28;20501;-72
2022/10/08 02:02:49;;;;;;;8.48;1.95;;;13.00;99.90;;;;;;5113015;28;20046;-72
2022/10/08 02:05:15;;;;;;;7.63;1.63;;;12.90;99.90;;;;;;5112060;28;20555;-72
2022/10/08 02:07:41;;;;;;;6.72;1.55;;;12.80;99.90;;;;;;5111819;28;20481;-72
2022/10/08 02:10:09;;;;;;;7.68;1.50;;;12.70;99.90;;;;;;5111754;28;20039;-72
2022/10/08 02:12:38;;;;;;;4.45;1.42;;;12.70;99.90;;;;;;5112606;28;20035;-71
2022/10/08 02:15:12;;;;;;;3.30;1.65;;;12.90;99.90;;;;;;5111693;28;20040;-71
2022/10/08 02:17:52;;;;;;;5.65;1.75;;;12.60;99.90;;;;;;5111588;28;20153;-71
2022/10/08 02:20:25;;;;;;;10.25;2.70;;;12.60;99.90;;;;;;5112991;28;20193;-72
2022/10/08 02:22:51;;;;;;;;;;;12.80;99.90;;;;;;5113048;28;20039;-71
2022/10/08 02:25:24;;;;;;;6.35;1.67;;;12.70;99.90;;;;;;5094588;28;19916;-71
2022/10/08 02:28:11;;;;;;;3.50;1.30;;;12.70;99.90;;;;;;5111759;28;20396;-72
2022/10/08 02:30:51;;;;;;;6.43;1.70;;;12.40;99.90;;;;;;5111436;28;20075;-72
2022/10/08 02:33:32;;;;;;;5.07;1.70;;;12.60;99.90;;;;;;5094035;28;20039;-71
2022/10/08 02:36:00;;;;;;;3.58;1.25;;;12.30;99.90;;;;;;5111493;28;20035;-72
2022/10/08 02:38:32;;;;;;;7.80;1.80;;;12.40;99.90;;;;;;5112782;28;20039;-72
2022/10/08 02:41:01;;;;;;;7.00;1.70;;;12.50;99.90;;;;;;5112058;28;20032;-72
2022/10/08 02:43:30;;;;;;;4.88;1.50;;;12.50;99.90;;;;;;5112302;28;20047;-71
2022/10/08 02:46:02;;;;;;;3.45;1.42;;;12.40;99.90;;;;;;5111257;28;20036;-72
2022/10/08 02:48:34;;;;;;;10.45;2.45;;;12.30;99.90;;;;;;5111211;28;20040;-71
2022/10/08 02:51:05;;;;;;;5.57;1.60;;;12.30;99.90;;;;;;5111085;28;20043;-72
2022/10/08 02:53:34;;;;;;;7.82;1.73;;;12.20;99.90;;;;;;5110854;28;20492;-72
2022/10/08 02:56:19;;;;;;;6.15;1.88;;;12.20;99.90;;;;;;5110987;28;20054;-71
2022/10/08 02:58:45;;;;;;;4.18;1.80;;;12.40;99.90;;;;;;5111023;28;20050;-71
2022/10/08 03:01:17;;;;;;;9.77;1.98;;;12.30;99.90;;;;;;5112392;28;20043;-71
2022/10/08 03:03:48;;;;;;;5.28;1.92;;;12.40;99.90;;;;;;5112025;28;20059;-72
2022/10/08 03:06:15;;;;;;;7.82;2.42;;;12.40;99.90;;;;;;5111004;28;20051;-72
2022/10/08 03:08:45;;;;;;;7.45;1.90;;;12.20;99.90;;;;;;5112161;28;20043;-72
2022/10/08 03:11:12;;;;;;;4.72;2.83;;;12.30;99.90;;;;;;5110978;28;20046;-72
2022/10/08 03:13:41;;;;;;;6.20;2.38;;;12.40;99.90;;;;;;5110578;28;20140;-72
2022/10/08 03:16:11;;;;;;;7.28;2.60;;;12.20;99.90;;;;;;5119472;22;20517;-73
2022/10/08 03:18:38;;;;;;;5.93;2.30;;;12.30;99.90;;;;;;5071568;28;20448;-73
2022/10/08 03:21:07;;;;;;;5.88;2.42;;;12.30;99.90;;;;;;5070937;28;20040;-73
2022/10/08 03:23:33;;;;;;;6.13;2.63;;;12.10;99.90;;;;;;5071182;28;20047;-73
2022/10/08 03:25:58;;;;;;;10.68;2.90;;;12.10;99.90;;;;;;5071346;28;20044;-73
2022/10/08 03:28:24;;;;;;;6.18;2.40;;;12.10;99.90;;;;;;5071633;28;20041;-73
2022/10/08 03:30:49;;;;;;;8.38;2.65;;;12.20;99.90;;;;;;5071428;28;20040;-72
2022/10/08 03:33:15;;;;;;;7.28;2.30;;;12.00;99.90;;;;;;5071171;28;20044;-72
2022/10/08 03:35:46;;;;;;;6.60;2.40;;;12.00;99.90;;;;;;5071212;28;20122;-73
2022/10/08 03:38:17;;;;;;;7.10;2.65;;;12.00;99.90;;;;;;5071222;28;20041;-73
2022/10/08 03:40:51;;;;;;;4.70;2.63;;;12.20;99.90;;;;;;5071585;28;20044;-73
2022/10/08 03:43:17;;;;;;;9.35;3.13;;;12.20;99.90;;;;;;5069698;28;20056;-73
2022/10/08 03:45:52;;;;;;;7.47;2.80;;;12.00;99.90;;;;;;5071245;28;20037;-73
2022/10/08 03:48:19;;;;;;;8.75;2.53;;;12.00;99.90;;;;;;5071267;28;20048;-73
2022/10/08 03:50:52;;;;;;;9.30;3.10;;;12.10;99.90;;;;;;5071011;28;20659;-73
2022/10/08 03:53:17;;;;;;;7.93;2.70;;;12.30;99.90;;;;;;5072954;28;20036;-73
2022/10/08 03:55:43;;;;;;;5.10;2.42;;;12.20;99.90;;;;;;5073642;28;20040;-73
2022/10/08 03:58:09;;;;;;;6.50;2.67;;;12.30;99.90;;;;;;5072410;28;20044;-73
2022/10/08 04:00:34;;;;;;;8.63;2.75;;;12.30;99.90;;;;;;5072272;28;20067;-73
2022/10/08 04:03:00;;;;;;;5.57;2.20;;;12.30;99.90;;;;;;5073104;28;20051;-72
2022/10/08 04:05:25;;;;;;;9.25;2.65;;;12.40;99.90;;;;;;5073543;28;20056;-73
2022/10/08 04:07:51;;;;;;;8.40;2.75;;;12.20;99.90;;;;;;5074870;28;20046;-73
2022/10/08 04:10:16;;;;;;;10.55;2.30;;;12.30;99.90;;;;;;5074665;28;20038;-72
2022/10/08 04:12:42;;;;;;;7.45;2.65;;;12.30;99.90;;;;;;5074357;28;20123;-73
2022/10/08 04:15:08;;;;;;;10.23;2.63;;;12.10;99.90;;;;;;5074522;28;20041;-73
2022/10/08 04:17:33;;;;;;;7.85;2.88;;;12.30;99.90;;;;;;5074079;28;20036;-72
2022/10/08 04:19:59;;;;;;;7.68;2.58;;;12.20;99.90;;;;;;5074076;28;20037;-73
2022/10/08 04:22:24;;;;;;;10.95;2.55;;;12.10;99.90;;;;;;5072816;28;20036;-73
2022/10/08 04:24:50;;;;;;;7.63;3.00;;;12.00;99.90;;;;;;5074588;28;20064;-73
2022/10/08 04:27:15;;;;;;;10.15;2.50;;;12.00;99.90;;;;;;5074258;28;20048;-73
2022/10/08 04:29:41;;;;;;;12.98;2.75;;;12.20;99.90;;;;;;5073111;28;20036;-73
2022/10/08 04:32:06;;;;;;;8.65;3.15;;;12.20;99.90;;;;;;5074307;28;20036;-73
2022/10/08 04:34:32;;;;;;;13.88;3.20;;;12.20;99.90;;;;;;5074150;28;20036;-73
2022/10/08 04:36:57;;;;;;;8.63;2.20;;;12.00;99.90;;;;;;5074207;28;20524;-73
2022/10/08 04:39:23;;;;;;;10.68;2.55;;;11.90;99.90;;;;;;5074286;28;20639;-73
2022/10/08 04:41:49;;;;;;;11.57;2.33;;;11.90;99.90;;;;;;5073110;28;20058;-73
2022/10/08 04:44:14;;;;;;;9.10;2.30;;;12.10;99.90;;;;;;5073688;28;20048;-74
2022/10/08 04:46:40;;;;;;;10.85;2.25;;;12.10;99.90;;;;;;5073960;28;20140;-73
2022/10/08 04:49:05;;;;;;;10.10;2.63;;;11.80;99.90;;;;;;5073763;28;20614;-73
2022/10/08 04:51:31;;;;;;;7.60;2.80;;;12.00;99.90;;;;;;5074110;28;20050;-73
2022/10/08 04:53:57;;;;;;;10.10;2.70;;;11.90;99.90;;;;;;5072232;28;20044;-73
2022/10/08 04:56:25;;;;;;;10.85;2.95;;;12.00;99.90;;;;;;5073987;28;20033;-74
2022/10/08 04:58:53;;;;;;;9.93;2.58;;;11.90;99.90;;;;;;5072435;28;20032;-73
2022/10/08 05:01:20;;;;;;;9.50;2.28;;;12.00;99.90;;;;;;5072497;28;20115;-73
2022/10/08 05:03:48;;;;;;;6.82;2.60;;;11.70;99.90;;;;;;5072887;28;20044;-73
2022/10/08 05:06:15;;;;;;;7.35;2.13;;;11.80;99.90;;;;;;5073441;28;20032;-73
2022/10/08 05:08:42;;;;;;;9.50;3.25;;;11.90;99.90;;;;;;5073592;28;20032;-72
2022/10/08 05:11:08;;;;;;;11.05;3.20;;;11.90;99.90;;;;;;5073610;28;20033;-73
2022/10/08 05:13:33;;;;;;;8.52;2.95;;;11.80;99.90;;;;;;5071931;28;20044;-72
2022/10/08 05:16:04;;;;;;;10.10;2.88;;;11.90;99.90;;;;;;5073300;28;20066;-73
2022/10/08 05:18:31;;;;;;;6.38;2.75;;;11.60;99.90;;;;;;5073347;28;20123;-73
2022/10/08 05:20:56;;;;;;;12.88;2.88;;;11.70;99.90;;;;;;5072058;28;20036;-73
2022/10/08 05:23:22;;;;;;;10.57;3.28;;;11.70;99.90;;;;;;5071716;28;20040;-73
2022/10/08 05:25:47;;;;;;;10.63;3.17;;;11.70;99.90;;;;;;5073281;28;20044;-73
2022/10/08 05:28:13;;;;;;;11.98;3.28;;;11.70;99.90;;;;;;5073194;28;20037;-72
2022/10/08 05:30:38;;;;;;;10.88;3.05;;;11.60;99.90;;;;;;5071929;28;20543;-73
2022/10/08 05:33:04;;;;;;;7.50;3.28;;;11.70;99.90;;;;;;5072703;28;20131;-73
2022/10/08 05:35:29;;;;;;;11.73;2.92;;;11.80;99.90;;;;;;5073305;28;20032;-72
2022/10/08 05:37:55;;;;;;;17.90;3.42;;;11.70;99.90;;;;;;5073304;28;20699;-73
2022/10/08 05:40:20;;;;;;;12.23;3.30;;;11.70;99.90;;;;;;5073074;28;20041;-73
2022/10/08 05:42:46;;;;;;;14.95;3.35;;;11.70;99.90;;;;;;5072616;28;20046;-73
2022/10/08 05:45:11;;;;;;;15.27;3.17;;;11.70;99.90;;;;;;5072923;28;20073;-74
2022/10/08 05:47:37;;;;;;;11.27;3.25;;;11.60;99.90;;;;;;5072585;28;20051;-72
2022/10/08 05:50:03;;;;;;;10.23;2.65;;;11.70;99.90;;;;;;5071604;28;20048;-73
2022/10/08 05:52:29;;;;;;;11.82;4.30;;;11.70;99.90;;;;;;5072566;28;20067;-73
2022/10/08 05:54:54;;;;;;;9.52;2.65;;;11.70;99.90;;;;;;5072690;28;20474;-73
2022/10/08 05:57:20;;;;;;;11.45;3.38;;;11.60;99.90;;;;;;5072538;28;20028;-73
2022/10/08 05:59:45;;;;;;;12.73;2.72;;;11.70;99.90;;;;;;5072650;28;20395;-73
2022/10/08 06:02:11;;;;;;;9.85;2.83;;;11.60;99.90;;;;;;5072390;28;20036;-73
2022/10/08 06:04:36;;;;;;;9.88;2.60;;;11.50;99.90;;;;;;5072456;28;20069;-73
2022/10/08 06:07:02;;;;;;;8.85;2.80;;;11.60;99.90;;;;;;5071397;28;20401;-74
2022/10/08 06:09:27;;;;;;;13.27;2.97;;;11.50;99.90;;;;;;5072481;28;20525;-72
2022/10/08 06:11:53;;;;;;;10.82;2.38;;;11.50;99.90;;;;;;5072363;28;20490;-73
2022/10/08 06:14:19;;;;;;;8.73;3.05;;;11.60;99.90;;;;;;5070769;28;20143;-73
2022/10/08 06:16:45;;;;;;;12.90;3.03;;;11.70;99.90;;;;;;5069944;28;20047;-73
2022/10/08 06:19:10;;;;;;;7.40;2.83;;;11.60;99.90;;;;;;5072253;28;20036;-72
2022/10/08 06:21:37;;;;;;;10.07;2.90;;;11.70;99.90;;;;;;5072358;28;20120;-73
2022/10/08 06:24:05;;;;;;;9.60;2.45;;;11.60;99.90;;;;;;5072028;28;20067;-73
2022/10/08 06:26:35;;;;;;;10.85;2.75;;;11.60;99.90;;;;;;5072069;28;20048;-73
2022/10/08 06:29:01;;;;;;;13.25;3.10;;;11.60;99.90;;;;;;5072039;28;20072;-73
2022/10/08 06:31:26;;;;;;;9.25;2.75;;;11.80;99.90;;;;;;5072332;28;20048;-72
2022/10/08 06:33:56;;;;;;;14.57;2.42;;;11.90;99.90;;;;;;5071864;28;20089;-73
2022/10/08 06:36:27;;;;;;;17.13;3.30;;;11.70;99.90;;;;;;5072065;28;20036;-73
2022/10/08 06:38:55;;;;;;;14.27;2.70;;;11.90;99.90;;;;;;5072068;28;20036;-73
2022/10/08 06:41:21;;;;;;;10.77;3.33;;;11.80;99.90;;;;;;5070619;28;20055;-73
2022/10/08 06:43:47;;;;;;;11.15;2.22;;;11.90;99.90;;;;;;5071533;28;20032;-74
2022/10/08 06:46:13;;;;;;;9.73;2.40;;;11.90;99.90;;;;;;5071841;28;20032;-73
2022/10/08 06:48:39;;;;;;;13.13;3.85;;;12.00;99.90;;;;;;5071999;28;20086;-73
2022/10/08 06:51:13;;;;;;;16.58;3.42;;;12.10;99.90;;;;;;5071925;28;20098;-72
2022/10/08 06:53:40;;;;;;;7.97;2.22;;;12.10;99.90;;;;;;5071554;28;20102;-72
2022/10/08 06:56:16;;;;;;;9.70;2.25;;;12.30;99.90;;;;;;5071603;28;20078;-73
2022/10/08 06:58:43;;;;;;;11.32;2.72;;;12.40;99.90;;;;;;5071906;28;20041;-72
2022/10/08 07:01:18;;;;;;;10.50;2.50;;;12.40;99.90;;;;;;5071820;28;20040;-72
2022/10/08 07:03:48;;;;;;;9.45;3.05;;;12.40;99.90;;;;;;5071545;28;20040;-72
2022/10/08 07:06:13;;;;;;;15.30;3.97;;;12.30;99.90;;;;;;5071679;28;20117;-72
2022/10/08 07:08:39;;;;;;;9.70;1.90;;;12.40;99.90;;;;;;5071016;28;20493;-72
2022/10/08 07:11:24;;;;;;;11.32;3.17;;;12.30;99.90;;;;;;5071007;28;20024;-72
2022/10/08 07:13:50;;;;;;;7.95;1.90;;;12.40;99.90;;;;;;5069192;28;20043;-73
2022/10/08 07:16:18;;;;;;;11.70;2.78;;;12.20;99.90;;;;;;5070722;28;20138;-73
2022/10/08 07:18:45;;;;;;;6.57;1.58;;;12.40;99.90;;;;;;5071429;28;20115;-73
2022/10/08 07:21:14;;;;;;;4.47;1.23;;;12.50;99.90;;;;;;5071130;28;20040;-73
2022/10/08 07:23:39;;;;;;;5.57;1.52;;;12.50;99.90;;;;;;5069573;28;20387;-72
2022/10/08 07:26:16;;;;;;;13.23;2.13;;;12.30;99.90;;;;;;5070918;28;20059;-72
2022/10/08 07:28:47;;;;;;;6.97;2.10;;;12.30;99.90;;;;;;5074175;28;20040;-72
2022/10/08 07:31:16;;;;;;;8.93;1.73;;;12.40;99.90;;;;;;5075472;28;20068;-72
2022/10/08 07:33:41;;;;;;;14.02;3.72;;;12.40;99.90;;;;;;5073307;28;20501;-72
2022/10/08 07:36:09;;;;;;;15.18;2.55;;;12.30;99.90;;;;;;5073903;28;20131;-71
2022/10/08 07:38:35;;;;;;;9.48;2.20;;;12.40;99.90;;;;;;5074071;28;20066;-72
2022/10/08 07:41:01;;;;;;;14.55;2.20;;;12.40;99.90;;;;;;5075376;28;20681;-73
2022/10/08 07:43:26;;;;;;;7.18;1.58;;;12.40;99.90;;;;;;5075160;28;20044;-74
2022/10/08 07:45:52;;;;;;;12.00;2.33;;;12.50;99.90;;;;;;5075227;28;20040;-73
2022/10/08 07:48:18;;;;;;;9.73;2.25;;;12.40;99.90;;;;;;5075155;28;20406;-73
2022/10/08 07:50:44;;;;;;;10.48;2.35;;;12.50;99.90;;;;;;5074294;28;20079;-73
2022/10/08 07:53:10;;;;;;;11.98;3.42;;;12.80;99.90;;;;;;5074909;28;20094;-73
2022/10/08 07:55:36;;;;;;;9.68;1.77;;;12.90;99.90;;;;;;5073987;28;20449;-73
2022/10/08 07:58:02;;;;;;;6.50;1.55;;;13.20;99.90;;;;;;5073684;28;20494;-74
2022/10/08 08:00:27;;;;;;;8.52;2.00;;;13.30;99.90;;;;;;5074949;28;20037;-73
2022/10/08 08:02:53;;;;;;;6.50;2.38;;;13.60;99.90;;;;;;5074483;28;20032;-74
2022/10/08 08:05:19;;;;;;;7.95;1.85;;;13.90;99.90;;;;;;5074991;28;20514;-73
2022/10/08 08:07:44;;;;;;;9.82;2.53;;;13.90;99.90;;;;;;5074988;28;20041;-73
2022/10/08 08:10:10;;;;;;;5.70;1.30;;;14.10;99.90;;;;;;5074801;28;20036;-74
2022/10/08 08:12:35;;;;;;;14.57;2.10;;;14.40;99.90;;;;;;5074295;28;20101;-74
2022/10/08 08:15:01;;;;;;;6.07;1.70;;;14.60;99.90;;;;;;5074667;28;20408;-76
2022/10/08 08:17:27;;;;;;;7.20;1.73;;;14.50;99.90;;;;;;5074328;28;20222;-74
2022/10/08 08:19:52;;;;;;;7.70;1.73;;;14.60;99.90;;;;;;5074638;28;20123;-74
2022/10/08 08:22:18;;;;;;;5.50;1.75;;;14.60;99.90;;;;;;5074439;28;20119;-74
2022/10/08 08:24:43;;;;;;;14.98;2.17;;;14.60;99.90;;;;;;5074425;28;20036;-75
2022/10/08 08:27:09;;;;;;;9.07;1.73;;;14.80;99.90;;;;;;5074482;28;20072;-74
2022/10/08 08:29:34;;;;;;;8.80;1.67;;;14.90;99.90;;;;;;5074492;28;20049;-74
2022/10/08 08:32:00;;;;;;;5.85;1.70;;;15.00;99.90;;;;;;5072933;28;20413;-73
2022/10/08 08:34:26;;;;;;;8.25;1.65;;;14.70;99.90;;;;;;5074194;28;20044;-74
2022/10/08 08:36:52;;;;;;;8.27;1.63;;;14.70;99.90;;;;;;5072905;28;20036;-75
2022/10/08 08:39:23;;;;;;;7.65;2.33;;;14.40;99.90;;;;;;5071825;28;20032;-74
2022/10/08 08:42:26;;;;;;;10.10;2.55;;;14.60;99.90;;;;;;5074166;28;20150;-74
2022/10/08 08:44:58;;;;;;;12.02;2.05;;;14.60;99.90;;;;;;5073125;28;20425;-74
2022/10/08 08:47:31;;;;;;;7.30;2.78;;;14.60;99.90;;;;;;5072769;28;20041;-74
2022/10/08 08:50:13;;;;;;;4.10;1.40;;;14.70;99.90;;;;;;5074207;28;20098;-74
2022/10/08 08:52:41;;;;;;;6.70;1.45;;;14.90;99.90;;;;;;5072655;28;20040;-74
2022/10/08 08:55:15;;;;;;;11.07;1.65;;;14.90;99.90;;;;;;5055897;28;20040;-74
2022/10/08 08:57:47;;;;;;;6.97;1.88;;;14.90;99.90;;;;;;5055854;28;20037;-74
2022/10/08 09:00:14;;;;;;;8.02;1.80;;;14.90;99.90;;;;;;5074059;28;20482;-74
2022/10/08 09:02:52;;;;;;;6.25;1.42;;;14.70;99.90;;;;;;5073364;28;20033;-74
2022/10/08 09:05:19;;;;;;;5.43;1.15;;;14.70;99.90;;;;;;5073366;28;20082;-74
2022/10/08 09:07:57;;;;;;;5.82;1.48;;;14.60;99.90;;;;;;5069389;28;20037;-74
2022/10/08 09:10:37;;;;;;;7.38;1.23;;;14.70;99.90;;;;;;5066118;28;20039;-74
2022/10/08 09:13:02;;;;;;;3.70;1.25;;;14.70;99.90;;;;;;5073480;28;20032;-74
2022/10/08 09:15:33;;;;;;;11.82;2.15;;;14.70;99.90;;;;;;5073416;28;20038;-75
2022/10/08 09:18:01;;;;;;;6.80;1.30;;;14.90;99.90;;;;;;5073344;28;20066;-74
2022/10/08 09:20:28;;;;;;;5.78;1.30;;;14.70;99.90;;;;;;5073690;28;20058;-74
2022/10/08 09:22:54;;;;;;;6.45;1.35;;;14.90;99.90;;;;;;5071804;28;20059;-74
2022/10/08 09:25:25;;;;;;;5.85;1.58;;;14.80;99.90;;;;;;5073427;28;20063;-73
2022/10/08 09:27:59;;;;;;;7.07;1.23;;;14.80;99.90;;;;;;5072172;28;20051;-74
2022/10/08 09:30:32;;;;;;;8.25;1.42;;;14.80;99.90;;;;;;5073273;28;20040;-73
2022/10/08 09:33:01;;;;;;;9.75;1.60;;;14.80;99.90;;;;;;5069646;28;20045;-72
2022/10/08 09:35:27;;;;;;;5.35;1.27;;;15.10;99.90;;;;;;5072487;28;20106;-72
2022/10/08 09:37:55;;;;;;;6.65;1.33;;;15.30;99.90;;;;;;5072823;28;20036;-72
2022/10/08 09:40:26;;;;;;;11.10;1.52;;;15.40;99.90;;;;;;5073058;28;20114;-71
2022/10/08 09:43:16;;;;;;;10.27;1.63;;;15.50;99.90;;;;;;5072009;28;20048;-72
2022/10/08 09:45:46;;;;;;;7.40;1.30;;;15.60;99.90;;;;;;5073016;28;20045;-72
2022/10/08 09:48:21;;;;;;;10.10;2.10;;;15.80;99.90;;;;;;5072695;28;20119;-71
2022/10/08 09:51:02;;;;;;;8.52;1.58;;;15.70;99.90;;;;;;5069674;28;20119;-72
2022/10/08 09:53:57;;;;;;;8.15;1.48;;;15.70;99.90;;;;;;5068461;28;20585;-72
2022/10/08 09:56:26;;;;;;;;;;;15.40;99.90;;;;;;5072896;28;20048;-71
2022/10/08 09:58:58;;;;;;;6.00;1.10;;;15.40;99.90;;;;;;5072692;28;19923;-71
2022/10/08 10:01:24;;;;;;;7.85;1.30;;;15.40;99.90;;;;;;5072684;28;20515;-71
2022/10/08 10:03:53;;;;;;;5.13;1.35;;;15.50;99.90;;;;;;5071817;28;20044;-72
2022/10/08 10:06:32;;;;;;;4.00;1.00;;;15.50;99.90;;;;;;5072632;28;20045;-72
2022/10/08 10:09:09;;;;;;;6.50;1.55;;;15.30;99.90;;;;;;5072085;28;20036;-72
2022/10/08 10:11:48;;;;;;;3.42;0.82;;;15.10;99.90;;;;;;5071996;28;20032;-72
2022/10/08 10:14:28;;;;;;;8.43;1.35;;;14.80;99.90;;;;;;5071660;28;20125;-73
2022/10/08 10:17:15;;;;;;;6.38;1.33;;;14.40;99.90;;;;;;5071478;28;20164;-72
2022/10/08 10:20:04;;;;;;;7.30;1.00;;;14.10;99.90;;;;;;5069735;28;20032;-71
2022/10/08 10:22:48;;;;;;;13.75;2.63;;;14.10;99.90;;;;;;5071474;28;20029;-71
2022/10/08 10:25:23;;;;;;;10.27;2.22;;;13.90;99.90;;;;;;5052466;28;20048;-72
2022/10/08 10:28:21;;;;;;;5.70;1.83;;;13.80;99.90;;;;;;5057883;28;20032;-72
2022/10/08 10:30:54;;;;;;;13.65;2.45;;;13.80;99.90;;;;;;5066263;28;20048;-71
2022/10/08 10:33:25;;;;;;;9.32;1.52;;;13.90;99.90;;;;;;5071780;28;20032;-72
2022/10/08 10:35:54;;;;;;;6.93;1.67;;;13.90;99.90;;;;;;5070686;28;20482;-72
2022/10/08 10:38:26;;;;;;;9.50;2.28;;;13.90;99.90;;;;;;5072113;28;20037;-73
2022/10/08 10:41:05;;;;;;;7.20;2.45;;;13.80;99.90;;;;;;5072070;28;20032;-72
2022/10/08 10:43:46;;;;;;;8.20;1.80;;;13.80;99.90;;;;;;5070239;28;20473;-72
2022/10/08 10:46:33;;;;;;;9.32;1.63;;;14.00;99.90;;;;;;5071885;28;20743;-72
2022/10/08 10:48:59;;;;;;;5.45;1.80;;;14.00;99.90;;;;;;5070576;28;20048;-72
2022/10/08 10:51:36;;;;;;;10.40;2.40;;;14.10;99.90;;;;;;5071698;28;20036;-72
2022/10/08 10:54:34;;;;;;;8.25;1.30;;;14.10;99.90;;;;;;5070018;28;20048;-72
2022/10/08 10:57:37;;;;;;;8.93;2.38;;;14.20;99.90;;;;;;5070734;28;20036;-72
2022/10/08 11:00:19;;;;;;;5.97;1.52;;;14.00;99.90;;;;;;5071657;28;20043;-72
2022/10/08 11:03:10;;;;;;;10.77;1.50;;;14.00;99.90;;;;;;5070969;28;20048;-72
2022/10/08 11:05:38;;;;;;;8.30;1.73;;;14.00;99.90;;;;;;5071717;28;20036;-72
2022/10/08 11:08:19;;;;;;;9.45;1.95;;;14.10;99.90;;;;;;5071234;28;20032;-72
2022/10/08 11:11:06;;;;;;;5.35;1.40;;;14.10;99.90;;;;;;5071415;28;20068;-73
2022/10/08 11:13:56;;;;;;;8.40;1.63;;;14.40;99.90;;;;;;5069373;28;20111;-73
2022/10/08 11:16:47;;;;;;;10.07;1.20;;;14.40;99.90;;;;;;5070882;28;20041;-72
2022/10/08 11:19:42;;;;;;;5.80;1.55;;;14.70;99.90;;;;;;5071617;28;20032;-72
2022/10/08 11:22:23;;;;;;;7.85;1.55;;;14.90;99.90;;;;;;5066726;28;20413;-72
2022/10/08 11:25:09;;;;;;;7.55;1.90;;;15.00;99.90;;;;;;5067110;28;20041;-72
2022/10/08 11:27:49;;;;;;;9.68;1.40;;;15.10;99.90;;;;;;5070971;28;20048;-72
2022/10/08 11:30:20;;;;;;;4.43;1.50;;;15.00;99.90;;;;;;5070991;28;20039;-72
2022/10/08 11:32:52;;;;;;;13.85;1.90;;;15.00;99.90;;;;;;5071048;28;20047;-76
2022/10/08 11:35:46;;;;;;;7.03;1.35;;;14.70;99.90;;;;;;5070927;28;20041;-74
2022/10/08 11:38:24;;;;;;;7.80;1.60;;;14.50;99.90;;;;;;5071605;28;20029;-76
2022/10/08 11:41:20;;;;;;;8.13;1.48;;;14.30;99.90;;;;;;5071446;28;20048;-74
2022/10/08 11:43:57;;;;;;;7.03;1.48;;;14.10;99.90;;;;;;5070971;28;20460;-75
2022/10/08 11:46:30;;;;;;;5.72;1.60;;;14.10;99.90;;;;;;5071366;28;20101;-74
2022/10/08 11:49:01;;;;;;;8.95;1.98;;;14.10;99.90;;;;;;5071377;28;20650;-74
2022/10/08 11:51:28;;;;;;;7.50;1.33;;;13.90;99.90;;;;;;5071364;28;20052;-74
2022/10/08 11:54:14;;;;;;;6.32;1.77;;;13.80;99.90;;;;;;5070961;28;20049;-74
2022/10/08 11:56:43;;;;;;;9.60;1.42;;;13.60;99.90;;;;;;5071397;28;20067;-74
2022/10/08 11:59:26;;;;;;;4.93;1.15;;;13.40;99.90;;;;;;5071285;28;20037;-73
2022/10/08 12:01:55;;;;;;;4.57;1.23;;;13.40;99.90;;;;;;5071276;28;20115;-74
2022/10/08 12:04:28;;;;;;;3.30;1.10;;;13.20;99.90;;;;;;5069567;28;20094;-74
2022/10/08 12:07:22;;;;;;;8.13;1.15;;;13.40;99.90;;;;;;5070945;28;20094;-73
2022/10/08 12:10:05;;;;;;;5.75;0.95;;;13.20;99.90;;;;;;5071358;28;20036;-74
2022/10/08 12:12:52;;;;;;;4.10;1.00;;;13.00;99.90;;;;;;5069876;28;20049;-74
2022/10/08 12:15:23;;;;;;;5.50;1.33;;;12.80;99.90;;;;;;5067207;28;20052;-74
2022/10/08 12:17:57;;;;;;;4.57;1.00;;;12.60;99.90;;;;;;5075023;28;20170;-74
2022/10/08 12:20:25;;;;;;;6.05;0.95;;;12.50;99.90;;;;;;5057099;28;20115;-74
2022/10/08 12:23:18;;;;;;;9.23;1.20;;;12.50;99.90;;;;;;5072991;28;20109;-75
2022/10/08 12:25:44;;;;;;;;;;;12.50;99.90;;;;;;5074852;28;20044;-74
2022/10/08 12:28:19;;;;;;;9.05;1.70;;;12.40;99.90;;;;;;5074614;28;19916;-74
2022/10/08 12:30:53;;;;;;;7.75;1.10;;;12.40;99.90;;;;;;5074416;28;20119;-74
2022/10/08 12:33:19;;;;;;;9.43;1.30;;;12.40;99.90;;;;;;5073940;28;20053;-74
2022/10/08 12:36:07;;;;;;;6.63;1.60;;;12.40;99.90;;;;;;5072871;28;20055;-75
2022/10/08 12:38:37;;;;;;;8.75;1.55;;;12.40;99.90;;;;;;5074415;28;20052;-75
2022/10/08 12:41:23;;;;;;;8.70;1.60;;;12.60;99.90;;;;;;5073222;28;20116;-74
2022/10/08 12:44:10;;;;;;;15.88;2.28;;;12.70;99.90;;;;;;5072734;28;20040;-74
2022/10/08 12:47:03;;;;;;;11.77;3.08;;;13.00;99.90;;;;;;5072835;28;20128;-75
2022/10/08 12:49:45;;;;;;;6.47;1.30;;;13.20;99.90;;;;;;5074151;28;20062;-74
2022/10/08 12:52:13;;;;;;;8.70;1.67;;;13.20;99.90;;;;;;5074053;28;20040;-75
2022/10/08 12:54:46;;;;;;;13.48;2.35;;;13.50;99.90;;;;;;5073455;28;20614;-73
2022/10/08 12:57:25;;;;;;;10.70;2.17;;;13.90;99.90;;;;;;5073819;28;20490;-74
2022/10/08 12:59:52;;;;;;;10.18;1.70;;;14.00;99.90;;;;;;5072852;28;20048;-74
2022/10/08 13:02:35;;;;;;;10.88;1.65;;;14.10;99.90;;;;;;5072236;28;20094;-74
2022/10/08 13:05:03;;;;;;;11.15;2.28;;;14.00;99.90;;;;;;5071129;28;20047;-74
2022/10/08 13:07:31;;;;;;;9.30;1.50;;;13.90;99.90;;;;;;5072479;28;20049;-74